sensor_id;sensor_type;location;lat;lon;timestamp;pressure;altitude;pressure_sealevel;temperature;humidity
52839;BME280;39219;53.678;9.856;2022-07-06T00:00:06;101981.06;;;14.39;100.00
52839;BME280;39219;53.678;9.856;2022-07-06T00:02:35;101977.53;;;14.36;100.00
52839;BME280;39219;53.678;9.856;2022-07-06T00:05:03;101973.06;;;14.39;100.00
52839;BME280;39219;53.678;9.856;2022-07-06T00:07:29;101984.59;;;14.41;100.00
52839;BME280;39219;53.678;9.856;2022-07-06T00:09:56;101983.69;;;14.42;100.00
52839;BME280;39219;53.678;9.856;2022-07-06T00:12:23;101985.44;;;14.43;100.00
52839;BME280;39219;53.678;9.856;2022-07-06T00:14:49;101986.28;;;14.45;100.00
52839;BME280;39219;53.678;9.856;2022-07-06T00:17:16;101987.22;;;14.42;100.00
52839;BME280;39219;53.678;9.856;2022-07-06T00:19:42;101992.50;;;14.45;100.00
52839;BME280;39219;53.678;9.856;2022-07-06T00:22:10;101988.22;;;14.36;100.00
52839;BME280;39219;53.678;9.856;2022-07-06T00:24:37;101979.13;;;14.45;100.00
52839;BME280;39219;53.678;9.856;2022-07-06T00:27:03;101988.13;;;14.43;100.00
52839;BME280;39219;53.678;9.856;2022-07-06T00:29:30;101980.00;;;14.47;100.00
52839;BME280;39219;53.678;9.856;2022-07-06T00:31:57;101975.59;;;14.45;100.00
52839;BME280;39219;53.678;9.856;2022-07-06T00:34:23;101988.06;;;14.46;100.00
52839;BME280;39219;53.678;9.856;2022-07-06T00:36:50;101976.41;;;14.48;98.97
52839;BME280;39219;53.678;9.856;2022-07-06T00:39:18;101974.63;;;14.49;99.15
52839;BME280;39219;53.678;9.856;2022-07-06T00:41:47;101978.03;;;14.56;98.00
52839;BME280;39219;53.678;9.856;2022-07-06T00:44:13;101970.97;;;14.53;98.05
52839;BME280;39219;53.678;9.856;2022-07-06T00:46:39;101970.94;;;14.55;97.17
52839;BME280;39219;53.678;9.856;2022-07-06T00:49:06;101967.47;;;14.49;97.33
52839;BME280;39219;53.678;9.856;2022-07-06T00:51:52;101972.06;;;14.43;96.99
52839;BME280;39219;53.678;9.856;2022-07-06T00:54:20;101968.50;;;14.44;97.18
52839;BME280;39219;53.678;9.856;2022-07-06T00:56:47;101979.25;;;14.41;97.36
52839;BME280;39219;53.678;9.856;2022-07-06T00:59:14;101986.69;;;14.23;98.23
52839;BME280;39219;53.678;9.856;2022-07-06T01:01:40;101976.06;;;14.20;98.15
52839;BME280;39219;53.678;9.856;2022-07-06T01:04:07;101982.31;;;14.19;97.70
52839;BME280;39219;53.678;9.856;2022-07-06T01:06:33;101981.47;;;14.17;97.76
52839;BME280;39219;53.678;9.856;2022-07-06T01:09:00;101976.94;;;14.22;97.68
52839;BME280;39219;53.678;9.856;2022-07-06T01:11:28;101978.72;;;14.21;97.85
52839;BME280;39219;53.678;9.856;2022-07-06T01:13:56;101975.22;;;14.18;97.04
52839;BME280;39219;53.678;9.856;2022-07-06T01:16:23;101977.03;;;14.16;97.61
52839;BME280;39219;53.678;9.856;2022-07-06T01:18:49;101981.41;;;14.21;97.65
52839;BME280;39219;53.678;9.856;2022-07-06T01:21:17;101972.56;;;14.18;97.10
52839;BME280;39219;53.678;9.856;2022-07-06T01:23:46;101981.41;;;14.21;97.09
52839;BME280;39219;53.678;9.856;2022-07-06T01:26:14;101976.06;;;14.21;96.21
52839;BME280;39219;53.678;9.856;2022-07-06T01:28:41;101979.47;;;14.28;96.83
52839;BME280;39219;53.678;9.856;2022-07-06T01:31:14;101972.22;;;14.35;95.47
52839;BME280;39219;53.678;9.856;2022-07-06T01:33:41;101975.78;;;14.34;96.08
52839;BME280;39219;53.678;9.856;2022-07-06T01:36:08;101978.56;;;14.29;95.75
52839;BME280;39219;53.678;9.856;2022-07-06T01:38:44;101975.00;;;14.30;95.57
52839;BME280;39219;53.678;9.856;2022-07-06T01:41:11;101971.34;;;14.33;94.90
52839;BME280;39219;53.678;9.856;2022-07-06T01:43:38;101965.03;;;14.39;94.45
52839;BME280;39219;53.678;9.856;2022-07-06T01:46:05;101973.84;;;14.44;94.37
52839;BME280;39219;53.678;9.856;2022-07-06T01:48:31;101972.03;;;14.46;93.51
52839;BME280;39219;53.678;9.856;2022-07-06T01:50:58;101969.34;;;14.46;93.60
52839;BME280;39219;53.678;9.856;2022-07-06T01:53:24;101975.53;;;14.48;93.43
52839;BME280;39219;53.678;9.856;2022-07-06T01:55:52;101973.66;;;14.53;92.65
52839;BME280;39219;53.678;9.856;2022-07-06T01:58:18;101984.13;;;14.64;92.26
52839;BME280;39219;53.678;9.856;2022-07-06T02:00:45;101988.41;;;14.73;92.37
52839;BME280;39219;53.678;9.856;2022-07-06T02:03:11;101983.22;;;14.63;92.65
52839;BME280;39219;53.678;9.856;2022-07-06T02:05:38;101984.06;;;14.65;92.96
52839;BME280;39219;53.678;9.856;2022-07-06T02:08:04;101978.16;;;14.49;93.54
52839;BME280;39219;53.678;9.856;2022-07-06T02:10:31;101972.94;;;14.45;94.44
52839;BME280;39219;53.678;9.856;2022-07-06T02:12:59;101965.84;;;14.42;94.86
52839;BME280;39219;53.678;9.856;2022-07-06T02:15:25;101957.00;;;14.39;96.31
52839;BME280;39219;53.678;9.856;2022-07-06T02:17:52;101962.47;;;14.32;96.50
52839;BME280;39219;53.678;9.856;2022-07-06T02:20:18;101966.97;;;14.30;95.18
52839;BME280;39219;53.678;9.856;2022-07-06T02:22:45;101960.72;;;14.30;95.77
52839;BME280;39219;53.678;9.856;2022-07-06T02:25:11;101967.84;;;14.31;96.38
52839;BME280;39219;53.678;9.856;2022-07-06T02:27:37;101975.06;;;14.26;96.49
52839;BME280;39219;53.678;9.856;2022-07-06T02:30:06;101978.56;;;14.29;95.19
52839;BME280;39219;53.678;9.856;2022-07-06T02:32:33;101968.16;;;14.15;94.29
52839;BME280;39219;53.678;9.856;2022-07-06T02:34:59;101967.09;;;14.24;94.64
52839;BME280;39219;53.678;9.856;2022-07-06T02:37:26;101967.22;;;14.18;94.89
52839;BME280;39219;53.678;9.856;2022-07-06T02:39:52;101969.19;;;14.06;95.50
52839;BME280;39219;53.678;9.856;2022-07-06T02:42:19;101961.06;;;14.14;95.57
52839;BME280;39219;53.678;9.856;2022-07-06T02:44:45;101964.72;;;14.09;94.79
52839;BME280;39219;53.678;9.856;2022-07-06T02:47:13;101957.53;;;14.11;94.12
52839;BME280;39219;53.678;9.856;2022-07-06T02:49:39;101958.50;;;14.06;94.15
52839;BME280;39219;53.678;9.856;2022-07-06T02:52:06;101950.50;;;14.06;93.83
52839;BME280;39219;53.678;9.856;2022-07-06T02:54:32;101954.94;;;14.07;93.53
52839;BME280;39219;53.678;9.856;2022-07-06T02:56:59;101951.50;;;14.01;94.04
52839;BME280;39219;53.678;9.856;2022-07-06T02:59:25;101945.31;;;13.99;93.09
52839;BME280;39219;53.678;9.856;2022-07-06T03:01:51;101946.13;;;14.02;94.04
52839;BME280;39219;53.678;9.856;2022-07-06T03:04:19;101947.19;;;13.92;95.61
52839;BME280;39219;53.678;9.856;2022-07-06T03:06:46;101949.84;;;13.94;96.67
52839;BME280;39219;53.678;9.856;2022-07-06T03:09:13;101957.06;;;13.88;97.65
52839;BME280;39219;53.678;9.856;2022-07-06T03:11:39;101954.50;;;13.84;99.04
52839;BME280;39219;53.678;9.856;2022-07-06T03:14:06;101955.47;;;13.78;99.61
52839;BME280;39219;53.678;9.856;2022-07-06T03:16:32;101965.19;;;13.82;100.00
52839;BME280;39219;53.678;9.856;2022-07-06T03:18:58;101962.50;;;13.82;100.00
52839;BME280;39219;53.678;9.856;2022-07-06T03:21:26;101957.28;;;13.77;100.00
52839;BME280;39219;53.678;9.856;2022-07-06T03:23:53;101955.63;;;13.69;100.00
52839;BME280;39219;53.678;9.856;2022-07-06T03:26:19;101968.06;;;13.70;100.00
52839;BME280;39219;53.678;9.856;2022-07-06T03:28:46;101966.25;;;13.73;100.00
52839;BME280;39219;53.678;9.856;2022-07-06T03:31:12;101967.94;;;13.77;100.00
52839;BME280;39219;53.678;9.856;2022-07-06T03:33:39;101966.28;;;13.70;100.00
52839;BME280;39219;53.678;9.856;2022-07-06T03:36:06;101963.63;;;13.69;100.00
52839;BME280;39219;53.678;9.856;2022-07-06T03:38:33;101963.56;;;13.73;100.00
52839;BME280;39219;53.678;9.856;2022-07-06T03:41:00;101967.16;;;13.72;100.00
52839;BME280;39219;53.678;9.856;2022-07-06T03:43:27;101972.44;;;13.74;100.00
52839;BME280;39219;53.678;9.856;2022-07-06T03:45:53;101975.00;;;13.80;100.00
52839;BME280;39219;53.678;9.856;2022-07-06T03:48:20;101983.81;;;13.87;100.00
52839;BME280;39219;53.678;9.856;2022-07-06T03:50:46;101981.09;;;13.90;100.00
52839;BME280;39219;53.678;9.856;2022-07-06T03:53:13;101976.63;;;13.90;100.00
52839;BME280;39219;53.678;9.856;2022-07-06T03:55:40;101970.50;;;13.84;100.00
52839;BME280;39219;53.678;9.856;2022-07-06T03:58:07;101973.19;;;13.82;100.00
52839;BME280;39219;53.678;9.856;2022-07-06T04:00:33;101972.38;;;13.79;100.00
52839;BME280;39219;53.678;9.856;2022-07-06T04:03:00;101970.66;;;13.74;100.00
52839;BME280;39219;53.678;9.856;2022-07-06T04:05:27;101970.78;;;13.67;100.00
52839;BME280;39219;53.678;9.856;2022-07-06T04:07:53;101978.69;;;13.74;100.00
52839;BME280;39219;53.678;9.856;2022-07-06T04:10:19;101975.06;;;13.79;100.00
52839;BME280;39219;53.678;9.856;2022-07-06T04:12:47;101972.22;;;13.86;100.00
52839;BME280;39219;53.678;9.856;2022-07-06T04:15:14;101974.69;;;13.97;100.00
52839;BME280;39219;53.678;9.856;2022-07-06T04:17:40;101985.34;;;14.00;100.00
52839;BME280;39219;53.678;9.856;2022-07-06T04:20:20;101986.91;;;14.12;100.00
52839;BME280;39219;53.678;9.856;2022-07-06T04:22:47;101979.66;;;14.19;100.00
52839;BME280;39219;53.678;9.856;2022-07-06T04:25:13;101973.28;;;14.26;100.00
52839;BME280;39219;53.678;9.856;2022-07-06T04:27:40;101978.56;;;14.29;100.00
52839;BME280;39219;53.678;9.856;2022-07-06T04:30:10;101969.69;;;14.27;100.00
52839;BME280;39219;53.678;9.856;2022-07-06T04:32:36;101963.56;;;14.22;100.00
52839;BME280;39219;53.678;9.856;2022-07-06T04:35:04;101966.28;;;14.19;100.00
52839;BME280;39219;53.678;9.856;2022-07-06T04:37:31;101965.50;;;14.14;100.00
52839;BME280;39219;53.678;9.856;2022-07-06T04:39:57;101971.13;;;13.98;100.00
52839;BME280;39219;53.678;9.856;2022-07-06T04:42:24;101968.59;;;13.90;100.00
52839;BME280;39219;53.678;9.856;2022-07-06T04:44:51;101971.31;;;13.87;100.00
52839;BME280;39219;53.678;9.856;2022-07-06T04:47:19;101965.13;;;13.87;100.00
52839;BME280;39219;53.678;9.856;2022-07-06T04:49:45;101962.56;;;13.81;100.00
52839;BME280;39219;53.678;9.856;2022-07-06T04:52:12;101963.22;;;13.94;100.00
52839;BME280;39219;53.678;9.856;2022-07-06T04:54:38;101965.66;;;14.06;100.00
52839;BME280;39219;53.678;9.856;2022-07-06T04:57:04;101969.03;;;14.16;100.00
52839;BME280;39219;53.678;9.856;2022-07-06T04:59:31;101967.03;;;14.26;100.00
52839;BME280;39219;53.678;9.856;2022-07-06T05:01:57;101976.00;;;14.23;100.00
52839;BME280;39219;53.678;9.856;2022-07-06T05:04:25;101974.94;;;14.33;100.00
52839;BME280;39219;53.678;9.856;2022-07-06T05:06:52;101967.66;;;14.40;100.00
52839;BME280;39219;53.678;9.856;2022-07-06T05:09:18;101970.09;;;14.52;100.00
52839;BME280;39219;53.678;9.856;2022-07-06T05:11:45;101975.34;;;14.57;100.00
52839;BME280;39219;53.678;9.856;2022-07-06T05:14:11;101970.81;;;14.61;100.00
52839;BME280;39219;53.678;9.856;2022-07-06T05:16:38;101974.34;;;14.63;99.82
52839;BME280;39219;53.678;9.856;2022-07-06T05:19:04;101977.81;;;14.66;99.53
52839;BME280;39219;53.678;9.856;2022-07-06T05:21:32;101982.16;;;14.74;99.69
52839;BME280;39219;53.678;9.856;2022-07-06T05:23:58;101980.31;;;14.76;99.65
52839;BME280;39219;53.678;9.856;2022-07-06T05:26:25;101988.25;;;14.80;97.40
52839;BME280;39219;53.678;9.856;2022-07-06T05:28:51;101986.44;;;14.83;97.19
52839;BME280;39219;53.678;9.856;2022-07-06T05:31:18;101982.72;;;14.90;97.85
52839;BME280;39219;53.678;9.856;2022-07-06T05:33:44;101976.28;;;14.99;98.16
52839;BME280;39219;53.678;9.856;2022-07-06T05:36:11;101985.84;;;15.09;97.25
52839;BME280;39219;53.678;9.856;2022-07-06T05:38:39;101983.81;;;15.20;97.12
52839;BME280;39219;53.678;9.856;2022-07-06T05:41:06;101984.66;;;15.22;97.73
52839;BME280;39219;53.678;9.856;2022-07-06T05:43:32;102001.53;;;15.24;97.12
52839;BME280;39219;53.678;9.856;2022-07-06T05:46:01;101996.22;;;15.23;96.50
52839;BME280;39219;53.678;9.856;2022-07-06T05:48:27;102005.06;;;15.27;97.35
52839;BME280;39219;53.678;9.856;2022-07-06T05:51:11;102006.66;;;15.34;97.62
52839;BME280;39219;53.678;9.856;2022-07-06T05:53:39;102006.81;;;15.28;96.07
52839;BME280;39219;53.678;9.856;2022-07-06T05:56:06;102000.41;;;15.35;96.10
52839;BME280;39219;53.678;9.856;2022-07-06T05:58:32;102000.41;;;15.35;95.02
52839;BME280;39219;53.678;9.856;2022-07-06T06:00:59;101997.56;;;15.43;95.38
52839;BME280;39219;53.678;9.856;2022-07-06T06:03:25;101993.69;;;15.18;95.70
52839;BME280;39219;53.678;9.856;2022-07-06T06:05:52;101998.19;;;15.15;96.07
52839;BME280;39219;53.678;9.856;2022-07-06T06:08:18;101995.59;;;15.49;96.30
52839;BME280;39219;53.678;9.856;2022-07-06T06:10:46;102007.31;;;15.81;95.09
52839;BME280;39219;53.678;9.856;2022-07-06T06:13:13;102002.94;;;16.13;93.44
52839;BME280;39219;53.678;9.856;2022-07-06T06:15:40;102007.84;;;16.31;91.57
52839;BME280;39219;53.678;9.856;2022-07-06T06:18:06;102005.56;;;16.48;88.91
52839;BME280;39219;53.678;9.856;2022-07-06T06:20:33;102005.03;;;16.67;91.06
52839;BME280;39219;53.678;9.856;2022-07-06T06:23:00;102010.97;;;16.78;89.49
52839;BME280;39219;53.678;9.856;2022-07-06T06:25:30;102013.16;;;16.95;86.80
52839;BME280;39219;53.678;9.856;2022-07-06T06:27:59;102007.38;;;17.09;85.86
52839;BME280;39219;53.678;9.856;2022-07-06T06:30:26;102014.03;;;17.26;84.37
52839;BME280;39219;53.678;9.856;2022-07-06T06:33:08;102017.09;;;17.42;82.87
52839;BME280;39219;53.678;9.856;2022-07-06T06:35:35;102019.50;;;17.51;82.63
52839;BME280;39219;53.678;9.856;2022-07-06T06:38:02;102018.41;;;17.57;81.12
52839;BME280;39219;53.678;9.856;2022-07-06T06:40:29;102022.16;;;17.53;81.06
52839;BME280;39219;53.678;9.856;2022-07-06T06:42:55;102014.16;;;17.78;81.88
52839;BME280;39219;53.678;9.856;2022-07-06T06:45:24;102021.63;;;17.40;81.01
52839;BME280;39219;53.678;9.856;2022-07-06T06:47:50;102021.09;;;17.84;82.98
52839;BME280;39219;53.678;9.856;2022-07-06T06:50:17;102027.94;;;18.46;79.34
52839;BME280;39219;53.678;9.856;2022-07-06T06:52:43;102021.41;;;18.54;76.37
52839;BME280;39219;53.678;9.856;2022-07-06T06:55:10;102027.38;;;18.86;74.04
52839;BME280;39219;53.678;9.856;2022-07-06T06:57:36;102026.94;;;18.98;73.31
52839;BME280;39219;53.678;9.856;2022-07-06T07:00:04;102033.50;;;18.89;73.32
52839;BME280;39219;53.678;9.856;2022-07-06T07:02:33;102039.59;;;18.71;73.50
52839;BME280;39219;53.678;9.856;2022-07-06T07:04:59;102032.63;;;18.89;74.83
52839;BME280;39219;53.678;9.856;2022-07-06T07:07:26;102047.78;;;18.91;74.52
52839;BME280;39219;53.678;9.856;2022-07-06T07:09:52;102039.06;;;18.85;73.96
52839;BME280;39219;53.678;9.856;2022-07-06T07:12:19;102047.28;;;18.56;74.14
52839;BME280;39219;53.678;9.856;2022-07-06T07:14:45;102034.06;;;18.25;77.10
52839;BME280;39219;53.678;9.856;2022-07-06T07:17:12;102038.09;;;18.38;75.91
52839;BME280;39219;53.678;9.856;2022-07-06T07:19:40;102037.53;;;18.28;78.55
52839;BME280;39219;53.678;9.856;2022-07-06T07:22:07;102042.53;;;18.39;74.67
52839;BME280;39219;53.678;9.856;2022-07-06T07:24:33;102039.41;;;18.52;73.77
52839;BME280;39219;53.678;9.856;2022-07-06T07:27:00;102039.41;;;18.52;71.92
52839;BME280;39219;53.678;9.856;2022-07-06T07:29:26;102038.09;;;18.62;71.20
52839;BME280;39219;53.678;9.856;2022-07-06T07:31:53;102045.84;;;18.95;70.87
52839;BME280;39219;53.678;9.856;2022-07-06T07:34:19;102044.94;;;19.20;68.72
52839;BME280;39219;53.678;9.856;2022-07-06T07:36:47;102059.81;;;19.06;67.63
52839;BME280;39219;53.678;9.856;2022-07-06T07:39:14;102063.56;;;19.02;66.80
52839;BME280;39219;53.678;9.856;2022-07-06T07:41:40;102066.06;;;19.53;66.92
52839;BME280;39219;53.678;9.856;2022-07-06T07:44:07;102067.88;;;19.75;63.96
52839;BME280;39219;53.678;9.856;2022-07-06T07:46:33;102070.44;;;20.43;65.12
52839;BME280;39219;53.678;9.856;2022-07-06T07:49:00;102070.59;;;21.20;59.83
52839;BME280;39219;53.678;9.856;2022-07-06T07:51:26;102069.72;;;21.75;56.59
52839;BME280;39219;53.678;9.856;2022-07-06T07:53:54;102069.69;;;22.12;59.00
52839;BME280;39219;53.678;9.856;2022-07-06T07:56:21;102077.56;;;22.52;53.88
52839;BME280;39219;53.678;9.856;2022-07-06T07:58:47;102071.81;;;22.23;54.96
52839;BME280;39219;53.678;9.856;2022-07-06T08:01:14;102075.41;;;22.41;56.79
52839;BME280;39219;53.678;9.856;2022-07-06T08:03:41;102068.72;;;21.78;56.36
52839;BME280;39219;53.678;9.856;2022-07-06T08:06:07;102078.69;;;22.12;56.66
52839;BME280;39219;53.678;9.856;2022-07-06T08:08:34;102068.38;;;21.47;58.05
52839;BME280;39219;53.678;9.856;2022-07-06T08:11:02;102082.81;;;20.89;61.53
52839;BME280;39219;53.678;9.856;2022-07-06T08:13:28;102081.66;;;20.74;61.93
52839;BME280;39219;53.678;9.856;2022-07-06T08:15:55;102080.34;;;21.03;61.71
52839;BME280;39219;53.678;9.856;2022-07-06T08:18:21;102072.91;;;20.68;60.69
52839;BME280;39219;53.678;9.856;2022-07-06T08:20:48;102075.72;;;20.03;63.23
52839;BME280;39219;53.678;9.856;2022-07-06T08:23:14;102077.88;;;19.27;68.49
52839;BME280;39219;53.678;9.856;2022-07-06T08:25:41;102076.38;;;18.70;71.93
52839;BME280;39219;53.678;9.856;2022-07-06T08:28:08;102082.97;;;18.36;73.29
52839;BME280;39219;53.678;9.856;2022-07-06T08:30:35;102091.63;;;17.90;76.20
52839;BME280;39219;53.678;9.856;2022-07-06T08:33:01;102085.97;;;17.44;78.71
52839;BME280;39219;53.678;9.856;2022-07-06T08:35:28;102087.94;;;17.08;81.03
52839;BME280;39219;53.678;9.856;2022-07-06T08:37:55;102079.81;;;17.11;81.50
52839;BME280;39219;53.678;9.856;2022-07-06T08:40:21;102070.28;;;17.00;79.57
52839;BME280;39219;53.678;9.856;2022-07-06T08:42:51;102076.56;;;16.99;80.65
52839;BME280;39219;53.678;9.856;2022-07-06T08:45:21;102070.13;;;17.35;79.91
52839;BME280;39219;53.678;9.856;2022-07-06T08:47:49;102072.56;;;17.98;78.17
52839;BME280;39219;53.678;9.856;2022-07-06T08:50:16;102074.84;;;18.63;75.25
52839;BME280;39219;53.678;9.856;2022-07-06T08:52:43;102087.56;;;19.08;68.38
52839;BME280;39219;53.678;9.856;2022-07-06T08:55:10;102081.53;;;19.48;66.84
52839;BME280;39219;53.678;9.856;2022-07-06T08:57:37;102083.00;;;19.79;63.09
52839;BME280;39219;53.678;9.856;2022-07-06T09:00:06;102077.78;;;19.74;63.22
52839;BME280;39219;53.678;9.856;2022-07-06T09:02:34;102086.38;;;20.27;62.35
52839;BME280;39219;53.678;9.856;2022-07-06T09:05:03;102085.97;;;21.37;59.50
52839;BME280;39219;53.678;9.856;2022-07-06T09:07:30;102091.31;;;22.12;56.76
52839;BME280;39219;53.678;9.856;2022-07-06T09:09:59;102091.25;;;22.13;54.73
52839;BME280;39219;53.678;9.856;2022-07-06T09:14:54;102093.31;;;22.26;54.61
52839;BME280;39219;53.678;9.856;2022-07-06T09:17:20;102093.63;;;23.22;51.10
52839;BME280;39219;53.678;9.856;2022-07-06T09:19:48;102094.03;;;23.64;49.11
52839;BME280;39219;53.678;9.856;2022-07-06T09:22:25;102089.84;;;22.92;49.20
52839;BME280;39219;53.678;9.856;2022-07-06T09:24:52;102098.09;;;22.56;49.92
52839;BME280;39219;53.678;9.856;2022-07-06T09:27:19;102095.16;;;22.43;50.01
52839;BME280;39219;53.678;9.856;2022-07-06T09:29:45;102091.59;;;21.70;52.54
52839;BME280;39219;53.678;9.856;2022-07-06T09:32:14;102089.47;;;21.95;54.10
52839;BME280;39219;53.678;9.856;2022-07-06T09:34:46;102101.22;;;22.48;50.99
52839;BME280;39219;53.678;9.856;2022-07-06T09:37:14;102094.63;;;22.87;51.15
52839;BME280;39219;53.678;9.856;2022-07-06T09:39:42;102101.03;;;22.69;50.43
52839;BME280;39219;53.678;9.856;2022-07-06T09:42:09;102096.91;;;22.26;51.62
52839;BME280;39219;53.678;9.856;2022-07-06T09:44:36;102097.84;;;22.43;51.25
52839;BME280;39219;53.678;9.856;2022-07-06T09:47:05;102093.28;;;21.15;53.97
52839;BME280;39219;53.678;9.856;2022-07-06T09:49:32;102093.34;;;19.90;57.97
52839;BME280;39219;53.678;9.856;2022-07-06T09:52:00;102100.03;;;18.86;60.30
52839;BME280;39219;53.678;9.856;2022-07-06T09:54:28;102100.97;;;18.34;60.04
52839;BME280;39219;53.678;9.856;2022-07-06T09:56:56;102107.16;;;17.54;62.78
52839;BME280;39219;53.678;9.856;2022-07-06T09:59:24;102099.28;;;17.17;64.47
52839;BME280;39219;53.678;9.856;2022-07-06T10:01:52;102102.94;;;17.15;65.46
52839;BME280;39219;53.678;9.856;2022-07-06T10:04:20;102099.97;;;16.93;64.18
52839;BME280;39219;53.678;9.856;2022-07-06T10:06:47;102096.25;;;16.65;65.86
52839;BME280;39219;53.678;9.856;2022-07-06T10:09:14;102093.13;;;16.49;69.63
52839;BME280;39219;53.678;9.856;2022-07-06T10:11:44;102096.41;;;16.59;71.87
52839;BME280;39219;53.678;9.856;2022-07-06T10:14:12;102094.50;;;16.64;72.87
52839;BME280;39219;53.678;9.856;2022-07-06T10:16:40;102097.84;;;16.72;73.85
52839;BME280;39219;53.678;9.856;2022-07-06T10:19:08;102088.13;;;17.01;73.40
52839;BME280;39219;53.678;9.856;2022-07-06T10:21:36;102093.50;;;17.31;73.11
52839;BME280;39219;53.678;9.856;2022-07-06T10:24:03;102096.69;;;17.73;70.77
52839;BME280;39219;53.678;9.856;2022-07-06T10:26:31;102097.06;;;18.17;69.33
52839;BME280;39219;53.678;9.856;2022-07-06T10:29:00;102091.88;;;18.38;66.63
52839;BME280;39219;53.678;9.856;2022-07-06T10:31:27;102092.91;;;18.59;66.48
52839;BME280;39219;53.678;9.856;2022-07-06T10:33:55;102094.31;;;18.95;65.16
52839;BME280;39219;53.678;9.856;2022-07-06T10:36:22;102087.00;;;19.22;63.46
52839;BME280;39219;53.678;9.856;2022-07-06T10:38:50;102083.97;;;19.54;62.72
52839;BME280;39219;53.678;9.856;2022-07-06T10:41:17;102082.69;;;19.64;61.70
52839;BME280;39219;53.678;9.856;2022-07-06T10:43:45;102078.75;;;20.16;61.95
52839;BME280;39219;53.678;9.856;2022-07-06T10:46:16;102080.41;;;20.41;58.97
52839;BME280;39219;53.678;9.856;2022-07-06T10:48:45;102077.84;;;20.38;61.21
52839;BME280;39219;53.678;9.856;2022-07-06T10:51:22;102073.28;;;21.20;60.26
52839;BME280;39219;53.678;9.856;2022-07-06T10:53:55;102072.97;;;21.64;58.65
52839;BME280;39219;53.678;9.856;2022-07-06T10:56:31;102077.72;;;22.31;58.23
52839;BME280;39219;53.678;9.856;2022-07-06T10:59:02;102077.22;;;22.23;54.36
52839;BME280;39219;53.678;9.856;2022-07-06T11:01:30;102074.94;;;22.32;51.50
52839;BME280;39219;53.678;9.856;2022-07-06T11:04:07;102066.09;;;22.29;53.89
52839;BME280;39219;53.678;9.856;2022-07-06T11:06:35;102077.03;;;22.45;52.12
52839;BME280;39219;53.678;9.856;2022-07-06T11:09:04;102069.78;;;22.45;52.36
52839;BME280;39219;53.678;9.856;2022-07-06T11:11:41;102073.00;;;22.70;53.17
52839;BME280;39219;53.678;9.856;2022-07-06T11:14:12;102064.63;;;22.74;49.71
52839;BME280;39219;53.678;9.856;2022-07-06T11:17:01;102066.34;;;22.07;53.27
52839;BME280;39219;53.678;9.856;2022-07-06T11:19:29;102064.25;;;21.94;53.73
52839;BME280;39219;53.678;9.856;2022-07-06T11:21:57;102061.84;;;21.70;55.68
52839;BME280;39219;53.678;9.856;2022-07-06T11:24:26;102058.38;;;20.92;55.45
52839;BME280;39219;53.678;9.856;2022-07-06T11:26:54;102063.34;;;21.01;55.05
52839;BME280;39219;53.678;9.856;2022-07-06T11:29:22;102056.56;;;21.11;54.28
52839;BME280;39219;53.678;9.856;2022-07-06T11:31:50;102062.72;;;21.52;52.17
52839;BME280;39219;53.678;9.856;2022-07-06T11:34:21;102058.06;;;22.10;52.04
52839;BME280;39219;53.678;9.856;2022-07-06T11:36:48;102064.28;;;22.29;51.13
52839;BME280;39219;53.678;9.856;2022-07-06T11:39:14;102056.31;;;22.26;50.25
52839;BME280;39219;53.678;9.856;2022-07-06T11:41:41;102055.78;;;22.71;48.77
52839;BME280;39219;53.678;9.856;2022-07-06T11:44:07;102044.75;;;23.07;48.21
52839;BME280;39219;53.678;9.856;2022-07-06T11:46:35;102060.66;;;23.78;45.73
52839;BME280;39219;53.678;9.856;2022-07-06T11:49:04;102050.75;;;24.09;42.70
52839;BME280;39219;53.678;9.856;2022-07-06T11:51:33;102054.00;;;24.45;41.33
52839;BME280;39219;53.678;9.856;2022-07-06T11:54:06;102046.22;;;24.53;42.74
52839;BME280;39219;53.678;9.856;2022-07-06T11:56:34;102042.06;;;24.47;41.54
52839;BME280;39219;53.678;9.856;2022-07-06T11:59:01;102041.97;;;24.34;42.31
52839;BME280;39219;53.678;9.856;2022-07-06T12:01:29;102034.56;;;23.61;44.50
52839;BME280;39219;53.678;9.856;2022-07-06T12:03:57;102048.47;;;23.39;44.24
52839;BME280;39219;53.678;9.856;2022-07-06T12:06:25;102031.59;;;23.49;44.85
52839;BME280;39219;53.678;9.856;2022-07-06T12:08:54;102035.78;;;23.07;44.54
52839;BME280;39219;53.678;9.856;2022-07-06T12:11:23;102033.09;;;23.23;44.85
52839;BME280;39219;53.678;9.856;2022-07-06T12:13:51;102030.41;;;23.70;43.58
52839;BME280;39219;53.678;9.856;2022-07-06T12:16:19;102025.53;;;23.76;43.80
52839;BME280;39219;53.678;9.856;2022-07-06T12:18:48;102034.81;;;23.40;43.37
52839;BME280;39219;53.678;9.856;2022-07-06T12:21:17;102031.38;;;23.20;43.53
52839;BME280;39219;53.678;9.856;2022-07-06T12:23:45;102028.16;;;23.62;44.35
52839;BME280;39219;53.678;9.856;2022-07-06T12:26:14;102025.53;;;23.76;42.50
52839;BME280;39219;53.678;9.856;2022-07-06T12:28:42;102028.56;;;24.17;41.24
52839;BME280;39219;53.678;9.856;2022-07-06T12:31:10;102024.69;;;23.28;43.45
52839;BME280;39219;53.678;9.856;2022-07-06T12:33:37;102035.16;;;23.02;43.59
52839;BME280;39219;53.678;9.856;2022-07-06T12:36:11;102032.13;;;22.41;45.33
52839;BME280;39219;53.678;9.856;2022-07-06T12:38:43;102026.72;;;22.06;47.03
52839;BME280;39219;53.678;9.856;2022-07-06T12:41:10;102032.91;;;21.72;48.08
52839;BME280;39219;53.678;9.856;2022-07-06T12:43:39;102033.81;;;21.91;48.92
52839;BME280;39219;53.678;9.856;2022-07-06T12:46:28;102021.00;;;21.77;49.34
52839;BME280;39219;53.678;9.856;2022-07-06T12:48:56;102017.16;;;21.63;51.13
52839;BME280;39219;53.678;9.856;2022-07-06T12:51:23;102015.13;;;21.86;48.94